createdAt,value
2019-05-14T00:01:53.422Z,8.90
2019-05-14T00:04:23.990Z,11.47
2019-05-14T00:06:54.449Z,7.37
2019-05-14T00:09:25.173Z,10.43
2019-05-14T00:11:55.736Z,10.87
2019-05-14T00:14:37.242Z,9.63
2019-05-14T00:16:58.843Z,11.47
2019-05-14T00:19:31.825Z,9.20
2019-05-14T00:22:02.567Z,7.97
2019-05-14T00:24:33.080Z,10.57
2019-05-14T00:27:03.671Z,10.27
2019-05-14T00:29:34.249Z,7.87
2019-05-14T00:32:04.808Z,9.33
2019-05-14T00:34:35.403Z,10.73
2019-05-14T00:37:06.059Z,7.57
2019-05-14T00:39:37.913Z,10.43
2019-05-14T00:42:12.597Z,8.60
2019-05-14T00:44:54.291Z,8.67
2019-05-14T00:47:15.473Z,13.93
2019-05-14T00:49:46.066Z,11.00
2019-05-14T00:52:16.613Z,12.00
2019-05-14T00:54:47.122Z,12.47
2019-05-14T00:57:17.639Z,13.47
2019-05-14T00:59:48.173Z,10.80
2019-05-14T01:02:18.719Z,10.77
2019-05-14T01:04:51.371Z,13.30
2019-05-14T01:07:21.495Z,13.27
2019-05-14T01:09:52.515Z,15.43
2019-05-14T01:12:24.273Z,10.67
2019-05-14T01:15:07.029Z,10.90
2019-05-14T01:17:27.123Z,11.13
2019-05-14T01:19:57.625Z,11.77
2019-05-14T01:22:28.251Z,9.23
2019-05-14T01:24:58.717Z,11.87
2019-05-14T01:27:31.706Z,19.10
2019-05-14T01:30:02.334Z,8.13
2019-05-14T01:32:34.099Z,11.13
2019-05-14T01:35:04.725Z,8.23
2019-05-14T01:37:35.431Z,13.70
2019-05-14T01:40:06.355Z,9.67
2019-05-14T01:42:37.003Z,11.17
2019-05-14T01:45:23.527Z,14.07
2019-05-14T01:47:41.755Z,10.17
2019-05-14T01:50:12.469Z,10.90
2019-05-14T01:52:43.067Z,11.23
2019-05-14T01:55:14.660Z,10.93
2019-05-14T01:57:45.181Z,12.60
2019-05-14T02:00:16.645Z,8.40
2019-05-14T02:02:47.185Z,11.53
2019-05-14T02:05:17.781Z,9.20
2019-05-14T02:07:48.412Z,12.13
2019-05-14T02:10:22.101Z,13.20
2019-05-14T02:12:52.949Z,12.10
2019-05-14T02:15:36.368Z,17.23
2019-05-14T02:17:56.959Z,13.87
2019-05-14T02:20:27.443Z,13.50
2019-05-14T02:23:01.535Z,13.00
2019-05-14T02:25:32.283Z,15.97
2019-05-14T02:28:02.937Z,13.80
2019-05-14T02:30:48.129Z,15.47
2019-05-14T02:33:09.094Z,13.93
2019-05-14T02:35:39.769Z,12.43
2019-05-14T02:38:10.451Z,13.70
2019-05-14T02:40:42.147Z,12.10
2019-05-14T02:43:12.599Z,15.77
2019-05-14T02:46:00.769Z,12.43
2019-05-14T02:48:20.121Z,14.03
2019-05-14T02:50:49.963Z,13.23
2019-05-14T02:53:20.778Z,12.67
2019-05-14T02:55:51.316Z,15.23
2019-05-14T02:58:21.875Z,14.87
2019-05-14T03:00:52.459Z,16.00
2019-05-14T03:03:23.149Z,13.30
2019-05-14T03:05:53.644Z,15.77
2019-05-14T03:08:24.536Z,17.03
2019-05-14T03:10:55.170Z,12.27
2019-05-14T03:13:29.306Z,18.50
2019-05-14T03:15:59.369Z,15.03
2019-05-14T03:18:30.345Z,16.37
2019-05-14T03:21:01.214Z,18.47
2019-05-14T03:23:31.929Z,17.23
2019-05-14T03:26:02.809Z,15.23
2019-05-14T03:28:33.407Z,14.87
2019-05-14T03:31:04.486Z,15.80
2019-05-14T03:33:35.204Z,20.50
2019-05-14T03:36:15.021Z,18.70
2019-05-14T03:38:39.656Z,17.17
2019-05-14T03:41:13.901Z,18.57
2019-05-14T03:43:42.358Z,17.73
2019-05-14T03:46:12.857Z,16.97
2019-05-14T03:48:43.449Z,18.23
2019-05-14T03:51:14.049Z,15.80
2019-05-14T03:53:57.031Z,20.20
2019-05-14T03:56:19.274Z,19.57
2019-05-14T03:58:49.685Z,17.93
2019-05-14T04:01:20.949Z,17.23
2019-05-14T04:03:51.721Z,17.20
2019-05-14T04:06:23.285Z,16.13
2019-05-14T04:08:54.598Z,24.90
2019-05-14T04:11:29.679Z,21.13
2019-05-14T04:14:02.727Z,19.23
2019-05-14T04:16:35.088Z,21.80
2019-05-14T04:19:09.952Z,16.63
2019-05-14T04:21:40.439Z,20.57
2019-05-14T04:24:14.430Z,18.37
2019-05-14T04:26:58.430Z,19.63
2019-05-14T04:29:23.134Z,20.10
2019-05-14T04:31:55.976Z,15.10
2019-05-14T04:34:29.690Z,16.33
2019-05-14T04:36:59.388Z,18.97
2019-05-14T04:39:31.252Z,22.60
2019-05-14T04:42:01.898Z,14.33
2019-05-14T04:44:32.451Z,18.63
2019-05-14T04:47:21.697Z,18.03
2019-05-14T04:49:35.243Z,17.93
2019-05-14T04:52:05.815Z,31.40
2019-05-14T04:54:39.302Z,20.70
2019-05-14T04:57:10.239Z,18.80
2019-05-14T04:59:40.803Z,19.47
2019-05-14T05:02:11.353Z,16.60
2019-05-14T05:04:41.849Z,23.13
2019-05-14T05:07:12.387Z,18.00
2019-05-14T05:09:42.958Z,23.43
2019-05-14T05:12:13.517Z,22.37
2019-05-14T05:14:44.161Z,17.33
2019-05-14T05:17:14.695Z,17.43
2019-05-14T05:19:46.053Z,18.20
2019-05-14T05:22:19.323Z,18.97
2019-05-14T05:24:49.085Z,20.20
2019-05-14T05:27:19.717Z,20.37
2019-05-14T05:29:50.315Z,20.03
2019-05-14T05:32:20.829Z,18.70
2019-05-14T05:34:51.479Z,16.77
2019-05-14T05:37:21.998Z,17.77
2019-05-14T05:39:52.835Z,15.30
2019-05-14T05:42:23.426Z,22.40
2019-05-14T05:44:55.120Z,21.80
2019-05-14T05:47:25.610Z,19.13
2019-05-14T05:49:58.112Z,18.90
2019-05-14T05:52:28.516Z,15.13
2019-05-14T05:54:59.088Z,17.23
2019-05-14T05:57:29.924Z,15.73
2019-05-14T06:00:00.523Z,17.53
2019-05-14T06:02:32.415Z,18.90
2019-05-14T06:05:03.371Z,21.03
2019-05-14T06:07:34.225Z,15.43
2019-05-14T06:10:05.235Z,14.50
2019-05-14T06:12:38.916Z,14.83
2019-05-14T06:15:14.228Z,14.83
2019-05-14T06:17:43.269Z,14.87
2019-05-14T06:20:13.867Z,12.77
2019-05-14T06:22:44.383Z,15.53
2019-05-14T06:25:14.867Z,14.40
2019-05-14T06:27:45.416Z,16.27
2019-05-14T06:30:20.378Z,16.50
2019-05-14T06:32:50.936Z,10.97
2019-05-14T06:35:21.569Z,15.80
2019-05-14T06:37:52.072Z,18.37
2019-05-14T06:40:22.594Z,14.47
2019-05-14T06:42:53.203Z,12.67
2019-05-14T06:45:23.787Z,15.60
2019-05-14T06:47:54.384Z,12.10
2019-05-14T06:50:24.971Z,10.80
2019-05-14T06:52:57.997Z,12.47
2019-05-14T06:55:28.428Z,13.60
2019-05-14T06:57:59.232Z,11.37
2019-05-14T07:00:30.009Z,10.60
2019-05-14T07:03:00.517Z,13.40
2019-05-14T07:05:31.108Z,11.57
2019-05-14T07:08:01.755Z,11.80
2019-05-14T07:10:32.291Z,11.77
2019-05-14T07:13:02.854Z,11.47
2019-05-14T07:15:33.370Z,11.00
2019-05-14T07:18:03.946Z,10.37
2019-05-14T07:20:34.462Z,11.67
2019-05-14T07:23:05.257Z,13.17
2019-05-14T07:25:35.768Z,9.60
2019-05-14T07:28:08.708Z,11.43
2019-05-14T07:30:39.633Z,16.83
2019-05-14T07:33:10.519Z,9.70
2019-05-14T07:35:40.986Z,12.23
2019-05-14T07:38:11.501Z,9.23
2019-05-14T07:40:41.967Z,9.07
2019-05-14T07:43:14.386Z,9.93
2019-05-14T07:45:44.975Z,7.70
2019-05-14T07:48:18.859Z,11.50
2019-05-14T07:50:51.931Z,8.03
2019-05-14T07:53:34.843Z,8.50
2019-05-14T07:55:53.408Z,9.37
2019-05-14T07:58:23.911Z,11.10
2019-05-14T08:00:54.499Z,8.70
2019-05-14T08:03:25.132Z,11.53
2019-05-14T08:05:55.734Z,9.43
2019-05-14T08:08:26.235Z,9.07
2019-05-14T08:10:58.993Z,8.80
2019-05-14T08:13:28.922Z,7.77
2019-05-14T08:15:59.747Z,9.63
2019-05-14T08:18:30.389Z,10.17
2019-05-14T08:21:01.142Z,9.13
2019-05-14T08:23:31.839Z,11.10
2019-05-14T08:26:03.669Z,14.37
2019-05-14T08:28:34.560Z,13.57
2019-05-14T08:31:05.024Z,12.67
2019-05-14T08:33:35.551Z,15.50
2019-05-14T08:36:05.978Z,13.30
2019-05-14T08:38:38.264Z,11.43
2019-05-14T08:41:09.103Z,16.43
2019-05-14T08:43:41.107Z,10.50
2019-05-14T08:46:11.801Z,13.37
2019-05-14T08:48:42.229Z,12.93
2019-05-14T08:51:12.744Z,10.93
2019-05-14T08:53:43.324Z,15.07
2019-05-14T08:56:13.915Z,15.37
2019-05-14T08:58:44.444Z,11.93
2019-05-14T09:01:15.027Z,15.13
2019-05-14T09:03:45.582Z,12.10
2019-05-14T09:06:18.485Z,11.03
2019-05-14T09:08:49.493Z,12.60
2019-05-14T09:11:24.193Z,10.00
2019-05-14T09:13:52.942Z,10.57
2019-05-14T09:16:38.432Z,11.93
2019-05-14T09:18:58.160Z,10.70
2019-05-14T09:21:29.679Z,11.50
2019-05-14T09:24:00.445Z,10.40
2019-05-14T09:26:30.917Z,13.33
2019-05-14T09:29:17.911Z,14.53
2019-05-14T09:31:33.616Z,15.90
2019-05-14T09:34:04.178Z,11.80
2019-05-14T09:36:34.797Z,12.10
2019-05-14T09:39:11.833Z,13.37
2019-05-14T09:41:38.972Z,13.93
2019-05-14T09:44:09.532Z,11.30
2019-05-14T09:46:40.185Z,10.03
2019-05-14T09:49:10.817Z,10.83
2019-05-14T09:51:41.332Z,6.83
2019-05-14T09:54:11.944Z,11.50
2019-05-14T09:56:42.493Z,9.13
2019-05-14T09:59:13.023Z,7.67
2019-05-14T10:01:43.578Z,6.37
2019-05-14T10:04:14.209Z,10.27
2019-05-14T10:06:44.807Z,8.93
2019-05-14T10:09:15.365Z,8.33
2019-05-14T10:11:45.964Z,11.87
2019-05-14T10:14:16.530Z,9.47
2019-05-14T10:16:49.087Z,9.10
2019-05-14T10:19:20.278Z,10.90
2019-05-14T10:21:50.991Z,11.87
2019-05-14T10:24:21.585Z,8.37
2019-05-14T10:26:52.177Z,6.60
2019-05-14T10:29:22.643Z,8.13
2019-05-14T10:31:53.138Z,7.83
2019-05-14T10:34:23.671Z,8.70
2019-05-14T10:36:54.273Z,9.00
2019-05-14T10:39:24.803Z,9.87
2019-05-14T10:41:55.439Z,10.57
2019-05-14T10:44:26.094Z,10.60
2019-05-14T10:46:58.258Z,10.27
2019-05-14T10:49:29.980Z,9.40
2019-05-14T10:52:00.760Z,9.37
2019-05-14T10:54:31.295Z,8.00
2019-05-14T10:57:01.979Z,8.27
2019-05-14T10:59:32.614Z,12.63
2019-05-14T11:02:03.147Z,7.07
2019-05-14T11:04:34.588Z,13.53
2019-05-14T11:07:05.306Z,10.73
2019-05-14T11:09:37.899Z,9.50
2019-05-14T11:12:09.034Z,9.30
2019-05-14T11:14:39.666Z,11.70
2019-05-14T11:17:11.800Z,11.77
2019-05-14T11:19:42.760Z,9.90
2019-05-14T11:22:13.306Z,10.73
2019-05-14T11:24:43.816Z,7.90
2019-05-14T11:27:14.395Z,9.77
2019-05-14T11:29:44.900Z,11.27
2019-05-14T11:32:15.368Z,9.57
2019-05-14T11:34:45.914Z,12.10
2019-05-14T11:37:18.561Z,12.30
2019-05-14T11:39:48.814Z,9.53
2019-05-14T11:42:20.037Z,11.23
2019-05-14T11:44:51.658Z,10.80
2019-05-14T11:47:22.403Z,13.20
2019-05-14T11:49:53.038Z,12.03
2019-05-14T11:52:23.581Z,12.27
2019-05-14T11:54:55.244Z,12.67
2019-05-14T11:57:25.741Z,12.70
2019-05-14T11:59:58.158Z,13.37
2019-05-14T12:02:28.989Z,13.23
2019-05-14T12:04:59.661Z,15.00
2019-05-14T12:07:30.191Z,12.53
2019-05-14T12:10:00.716Z,14.47
2019-05-14T12:12:31.327Z,14.23
2019-05-14T12:15:01.872Z,12.90
2019-05-14T12:17:32.467Z,13.63
2019-05-14T12:20:03.113Z,12.23
2019-05-14T12:22:33.730Z,14.40
2019-05-14T12:25:04.363Z,16.83
2019-05-14T12:27:34.911Z,7.53
2019-05-14T12:30:09.359Z,10.23
2019-05-14T12:32:39.489Z,10.27
2019-05-14T12:35:10.730Z,10.77
2019-05-14T12:37:41.367Z,12.90
2019-05-14T12:40:12.167Z,14.83
2019-05-14T12:42:42.750Z,14.93
2019-05-14T12:45:13.526Z,16.57
2019-05-14T12:47:43.951Z,16.53
2019-05-14T12:50:16.048Z,15.00
2019-05-14T12:52:48.550Z,13.23
2019-05-14T12:55:19.433Z,13.93
2019-05-14T12:57:50.148Z,13.30
2019-05-14T13:00:21.286Z,12.30
2019-05-14T13:02:51.930Z,14.27
2019-05-14T13:05:23.501Z,11.13
2019-05-14T13:07:54.175Z,12.57
2019-05-14T13:10:25.789Z,10.53
2019-05-14T13:12:58.690Z,9.70
2019-05-14T13:15:28.941Z,13.70
2019-05-14T13:17:59.435Z,10.67
2019-05-14T13:20:29.973Z,13.70
2019-05-14T13:23:00.458Z,10.07
2019-05-14T13:25:31.102Z,11.00
2019-05-14T13:28:02.720Z,10.57
2019-05-14T13:30:33.318Z,12.33
2019-05-14T13:33:03.913Z,10.87
2019-05-14T13:35:34.566Z,9.33
2019-05-14T13:38:05.168Z,10.50
2019-05-14T13:40:35.849Z,13.70
2019-05-14T13:43:09.655Z,11.40
2019-05-14T13:45:39.329Z,14.43
2019-05-14T13:48:09.927Z,13.83
2019-05-14T13:50:40.963Z,13.70
2019-05-14T13:53:12.931Z,14.57
2019-05-14T13:55:47.501Z,12.67
2019-05-14T13:58:15.877Z,12.77
2019-05-14T14:00:51.586Z,14.63
2019-05-14T14:03:19.898Z,13.40
2019-05-14T14:05:50.807Z,11.03
2019-05-14T14:08:21.296Z,10.07
2019-05-14T14:10:53.960Z,6.97
2019-05-14T14:13:24.164Z,8.63
2019-05-14T14:15:54.742Z,11.63
2019-05-14T14:18:26.459Z,10.13
2019-05-14T14:20:57.144Z,6.53
2019-05-14T14:23:31.020Z,6.60
2019-05-14T14:26:00.177Z,9.00
2019-05-14T14:28:30.728Z,7.33
2019-05-14T14:31:01.323Z,7.07
2019-05-14T14:33:31.911Z,7.50
2019-05-14T14:36:02.442Z,10.57
2019-05-14T14:38:32.919Z,6.97
2019-05-14T14:41:03.432Z,8.30
2019-05-14T14:43:34.147Z,7.63
2019-05-14T14:46:07.002Z,8.73
2019-05-14T14:48:39.538Z,7.17
2019-05-14T14:51:09.175Z,13.40
2019-05-14T14:53:52.461Z,11.40
2019-05-14T14:56:12.978Z,11.13
2019-05-14T14:58:43.571Z,14.57
2019-05-14T15:01:14.925Z,14.67
2019-05-14T15:03:45.587Z,12.63
2019-05-14T15:06:16.115Z,19.57
2019-05-14T15:08:49.773Z,18.60
2019-05-14T15:11:19.810Z,14.67
2019-05-14T15:13:50.351Z,19.13
2019-05-14T15:16:21.005Z,18.97
2019-05-14T15:18:51.505Z,12.23
2019-05-14T15:21:22.184Z,14.87
2019-05-14T15:24:07.175Z,15.97
2019-05-14T15:26:44.276Z,16.40
2019-05-14T15:29:24.349Z,16.40
2019-05-14T15:32:15.178Z,20.37
2019-05-14T15:34:54.956Z,14.83
2019-05-14T15:37:28.579Z,13.73
2019-05-14T15:39:58.239Z,16.43
2019-05-14T15:42:28.767Z,13.53
2019-05-14T15:44:59.971Z,19.43
2019-05-14T15:47:30.718Z,19.27
2019-05-14T15:50:01.393Z,14.33
2019-05-14T15:52:31.978Z,16.13
2019-05-14T15:55:03.158Z,15.43
2019-05-14T15:57:34.786Z,14.63
2019-05-14T16:00:08.469Z,15.90
2019-05-14T16:02:39.985Z,12.77
2019-05-14T16:05:10.866Z,19.93
2019-05-14T16:07:41.567Z,16.83
2019-05-14T16:10:12.644Z,14.03
2019-05-14T16:12:43.355Z,13.63
2019-05-14T16:15:14.505Z,19.93
2019-05-14T16:17:49.958Z,16.13
2019-05-14T16:20:18.829Z,16.43
2019-05-14T16:22:49.858Z,13.43
2019-05-14T16:25:22.197Z,15.80
2019-05-14T16:27:52.747Z,16.30
2019-05-14T16:30:25.628Z,19.63
2019-05-14T16:32:59.640Z,20.10
2019-05-14T16:35:29.450Z,26.30
2019-05-14T16:38:00.110Z,24.07
2019-05-14T16:40:30.607Z,17.43
2019-05-14T16:43:03.561Z,20.93
2019-05-14T16:45:34.369Z,14.73
2019-05-14T16:48:04.981Z,20.53
2019-05-14T16:50:35.630Z,21.57
2019-05-14T16:53:11.286Z,24.97
2019-05-14T16:55:39.239Z,20.20
2019-05-14T16:58:10.895Z,13.03
2019-05-14T17:00:41.927Z,15.80
2019-05-14T17:03:13.353Z,12.20
2019-05-14T17:05:44.175Z,17.00
2019-05-14T17:08:14.861Z,20.40
2019-05-14T17:10:48.242Z,20.53
2019-05-14T17:13:19.092Z,17.03
2019-05-14T17:15:49.643Z,11.50
2019-05-14T17:18:20.192Z,15.83
2019-05-14T17:20:50.871Z,19.07
2019-05-14T17:23:23.994Z,17.77
2019-05-14T17:25:55.085Z,17.63
2019-05-14T17:28:28.419Z,20.73
2019-05-14T17:30:57.851Z,24.13
2019-05-14T17:33:29.187Z,19.97
2019-05-14T17:36:00.013Z,23.87
2019-05-14T17:38:30.566Z,23.07
2019-05-14T17:41:01.222Z,19.80
2019-05-14T17:43:31.806Z,20.73
2019-05-14T17:46:02.357Z,20.87
2019-05-14T17:48:33.008Z,17.57
2019-05-14T17:51:04.931Z,17.13
2019-05-14T17:53:35.463Z,25.87
2019-05-14T17:56:08.509Z,23.07
2019-05-14T17:58:40.149Z,27.87
2019-05-14T18:01:11.225Z,25.43
2019-05-14T18:03:41.807Z,25.13
2019-05-14T18:06:12.383Z,24.00
2019-05-14T18:08:44.337Z,27.00
2019-05-14T18:11:14.940Z,27.40
2019-05-14T18:13:47.763Z,21.03
2019-05-14T18:16:19.198Z,21.83
2019-05-14T18:18:49.999Z,20.53
2019-05-14T18:21:20.640Z,21.20
2019-05-14T18:23:51.272Z,22.03
2019-05-14T18:26:22.212Z,19.30
2019-05-14T18:28:52.789Z,21.87
2019-05-14T18:31:23.500Z,18.70
2019-05-14T18:33:58.618Z,16.67
2019-05-14T18:36:28.700Z,19.93
2019-05-14T18:38:59.373Z,20.80
2019-05-14T18:41:30.582Z,22.23
2019-05-14T18:44:02.264Z,22.03
2019-05-14T18:46:33.084Z,21.77
2019-05-14T18:49:04.680Z,19.57
2019-05-14T18:51:35.244Z,19.10
2019-05-14T18:54:07.859Z,18.90
2019-05-14T18:56:38.530Z,19.27
2019-05-14T18:59:09.122Z,18.97
2019-05-14T19:01:40.013Z,23.70
2019-05-14T19:04:12.685Z,18.70
2019-05-14T19:06:43.291Z,19.87
2019-05-14T19:09:15.118Z,21.97
2019-05-14T19:11:48.052Z,21.93
2019-05-14T19:14:18.730Z,15.20
2019-05-14T19:16:49.471Z,22.70
2019-05-14T19:19:22.041Z,21.53
2019-05-14T19:21:52.671Z,24.93
2019-05-14T19:24:23.248Z,21.60
2019-05-14T19:26:53.855Z,23.80
2019-05-14T19:29:24.405Z,22.67
2019-05-14T19:31:54.901Z,28.00
2019-05-14T19:34:25.458Z,22.17
2019-05-14T19:36:55.965Z,22.10
2019-05-14T19:39:28.211Z,18.17
2019-05-14T19:41:59.098Z,22.70
2019-05-14T19:44:29.858Z,20.13
2019-05-14T19:47:01.734Z,26.10
2019-05-14T19:49:32.435Z,22.37
2019-05-14T19:52:04.647Z,23.33
2019-05-14T19:54:38.229Z,20.10
2019-05-14T19:57:10.022Z,22.90
2019-05-14T19:59:43.303Z,22.67
2019-05-14T20:02:14.033Z,25.00
2019-05-14T20:04:46.922Z,17.73
2019-05-14T20:07:18.066Z,22.73
2019-05-14T20:09:48.933Z,27.47
2019-05-14T20:12:19.531Z,22.57
2019-05-14T20:14:50.184Z,19.37
2019-05-14T20:17:21.442Z,16.90
2019-05-14T20:19:51.945Z,19.30
2019-05-14T20:22:22.497Z,24.30
2019-05-14T20:24:53.172Z,24.60
2019-05-14T20:27:25.445Z,20.00
2019-05-14T20:29:57.993Z,21.67
2019-05-14T20:32:28.467Z,26.20
2019-05-14T20:35:00.139Z,20.60
2019-05-14T20:37:30.672Z,20.73
2019-05-14T20:40:03.203Z,19.10
2019-05-14T20:42:33.936Z,19.87
2019-05-14T20:45:04.674Z,20.03
2019-05-14T20:47:35.224Z,22.00
2019-05-14T20:50:08.719Z,18.87
2019-05-14T20:52:40.126Z,19.10
2019-05-14T20:55:10.685Z,24.60
2019-05-14T20:57:43.382Z,29.63
2019-05-14T21:00:14.235Z,24.87
2019-05-14T21:02:44.871Z,22.13
2019-05-14T21:05:18.693Z,29.53
2019-05-14T21:07:49.294Z,22.30
2019-05-14T21:10:20.096Z,31.07
2019-05-14T21:12:50.692Z,27.37
2019-05-14T21:15:21.256Z,21.13
2019-05-14T21:17:51.846Z,20.90
2019-05-14T21:20:22.379Z,22.67
2019-05-14T21:22:54.058Z,29.07
2019-05-14T21:25:26.078Z,23.90
2019-05-14T21:27:58.772Z,21.63
2019-05-14T21:30:29.753Z,22.50
2019-05-14T21:33:00.671Z,24.37
2019-05-14T21:35:31.636Z,22.13
2019-05-14T21:38:02.150Z,25.53
2019-05-14T21:40:32.740Z,25.63
2019-05-14T21:43:03.397Z,22.23
2019-05-14T21:45:33.954Z,22.53
2019-05-14T21:48:04.458Z,27.53
2019-05-14T21:50:34.971Z,19.93
2019-05-14T21:53:05.582Z,21.90
2019-05-14T21:55:38.590Z,19.70
2019-05-14T21:58:09.046Z,22.13
2019-05-14T22:00:48.275Z,25.70
2019-05-14T22:03:20.496Z,22.43
2019-05-14T22:05:51.813Z,19.27
2019-05-14T22:08:22.534Z,19.07
2019-05-14T22:10:53.070Z,25.03
2019-05-14T22:13:23.557Z,20.77
2019-05-14T22:15:54.129Z,25.70
2019-05-14T22:18:24.681Z,26.83
2019-05-14T22:20:58.007Z,21.27
2019-05-14T22:23:29.207Z,23.37
2019-05-14T22:25:59.899Z,26.63
2019-05-14T22:28:30.485Z,31.03
2019-05-14T22:31:01.108Z,21.93
2019-05-14T22:33:33.557Z,24.73
2019-05-14T22:36:04.030Z,27.50
2019-05-14T22:38:34.990Z,22.07
2019-05-14T22:41:05.520Z,22.37
2019-05-14T22:43:38.292Z,18.67
2019-05-14T22:46:08.716Z,30.87
2019-05-14T22:48:39.325Z,23.03
2019-05-14T22:51:09.932Z,25.67
2019-05-14T22:53:40.485Z,29.43
2019-05-14T22:56:12.651Z,25.17
2019-05-14T22:58:43.311Z,23.57
2019-05-14T23:01:15.125Z,31.93
2019-05-14T23:03:46.008Z,27.47
2019-05-14T23:06:18.779Z,24.50
2019-05-14T23:08:48.971Z,25.50
2019-05-14T23:11:19.947Z,29.27
2019-05-14T23:13:50.604Z,26.00
2019-05-14T23:16:33.478Z,31.43
2019-05-14T23:18:53.380Z,26.60
2019-05-14T23:21:23.880Z,23.33
2019-05-14T23:23:54.365Z,26.67
2019-05-14T23:26:24.953Z,26.47
2019-05-14T23:28:55.546Z,25.50
2019-05-14T23:31:26.103Z,22.77
2019-05-14T23:33:58.596Z,24.93
2019-05-14T23:36:29.282Z,33.57
2019-05-14T23:39:01.139Z,23.67
2019-05-14T23:41:33.123Z,21.50
2019-05-14T23:44:05.554Z,27.57
2019-05-14T23:46:36.055Z,26.40
2019-05-14T23:49:08.747Z,25.57
2019-05-14T23:51:38.733Z,23.77
2019-05-14T23:54:09.294Z,25.57
2019-05-14T23:56:39.881Z,24.17
2019-05-14T23:59:10.378Z,27.20
